Time;durP1;ratioP1;P1;durP2;ratioP2;P2;SDS_P1;SDS_P2;PMS_P1;PMS_P2;Temp;Humidity;BMP_temperature;BMP_pressure;BME280_temperature;BME280_humidity;BME280_pressure;Samples;Min_cycle;Max_cycle;Signal;HPM_P1;HPM_P2
2024/04/18 00:03:49;;;;;;;6.03;4.03;;;;;4.00;100950.00;;;;10506651;27;20257;-80
2024/04/18 00:08:51;;;;;;;7.10;5.13;;;;;4.00;100952.00;;;;10520101;27;20265;-79
2024/04/18 00:13:58;;;;;;;6.53;5.90;;;;;4.10;100956.00;;;;10499231;27;20266;-79
2024/04/18 00:19:08;;;;;;;12.27;7.00;;;;;4.20;100960.00;;;;10522058;27;20304;-80
2024/04/18 00:24:10;;;;;;;10.10;5.70;;;;;4.30;100965.00;;;;10524600;27;20358;-79
2024/04/18 00:29:24;;;;;;;7.70;6.10;;;;;4.30;100962.00;;;;10522666;27;20265;-80
2024/04/18 00:34:42;;;;;;;10.93;6.87;;;;;4.30;100968.00;;;;10516726;27;20273;-80
2024/04/18 00:40:04;;;;;;;9.70;6.97;;;;;4.30;100963.00;;;;10505569;27;20265;-80
2024/04/18 00:45:11;;;;;;;8.53;6.70;;;;;4.20;100967.00;;;;10489260;27;20269;-79
2024/04/18 00:50:19;;;;;;;11.63;7.40;;;;;4.20;100967.00;;;;10534503;27;20266;-80
2024/04/18 00:55:21;;;;;;;9.77;8.27;;;;;4.20;100973.00;;;;10471833;27;20261;-80
2024/04/18 01:00:45;;;;;;;12.00;8.13;;;;;4.30;100971.00;;;;10513812;27;20333;-82
2024/04/18 01:06:08;;;;;;;13.17;7.97;;;;;4.30;100979.00;;;;10553519;27;20389;-80
2024/04/18 01:11:29;;;;;;;13.73;8.57;;;;;4.40;100979.00;;;;10491447;27;21097;-78
2024/04/18 01:16:32;;;;;;;11.07;8.07;;;;;4.40;100980.00;;;;10518542;27;20318;-78
2024/04/18 01:21:33;;;;;;;14.43;9.00;;;;;4.40;100982.00;;;;10498544;27;20277;-78
2024/04/18 01:26:35;;;;;;;11.23;8.33;;;;;4.40;100991.00;;;;10511312;27;20263;-77
2024/04/18 01:31:36;;;;;;;12.10;8.63;;;;;4.50;100998.00;;;;10557580;27;20776;-78
2024/04/18 01:36:38;;;;;;;12.33;8.47;;;;;4.50;101000.00;;;;10509865;27;20707;-78
2024/04/18 01:41:59;;;;;;;11.63;8.80;;;;;4.40;101002.00;;;;10539437;27;20364;-78
2024/04/18 01:47:27;;;;;;;11.00;8.87;;;;;4.30;101014.00;;;;10514780;27;20265;-79
2024/04/18 01:52:42;;;;;;;12.27;8.67;;;;;4.10;101022.00;;;;10509087;27;20284;-77
2024/04/18 01:57:44;;;;;;;13.63;9.30;;;;;4.00;101024.00;;;;10548160;27;20269;-78
2024/04/18 02:03:06;;;;;;;12.13;8.70;;;;;3.90;101030.00;;;;10499076;27;20308;-80
2024/04/18 02:08:17;;;;;;;10.77;8.97;;;;;3.90;101033.00;;;;10532836;27;20262;-78
2024/04/18 02:13:18;;;;;;;12.63;9.40;;;;;3.90;101037.00;;;;10531733;27;20269;-77
2024/04/18 02:18:20;;;;;;;12.53;10.27;;;;;4.00;101032.00;;;;10517279;27;20270;-77
2024/04/18 02:23:24;;;;;;;14.63;10.27;;;;;4.10;101051.00;;;;10547617;27;20389;-77
2024/04/18 02:28:26;;;;;;;14.03;10.10;;;;;4.10;101042.00;;;;10524909;27;20795;-77
2024/04/18 02:33:47;;;;;;;14.20;10.77;;;;;4.20;101065.00;;;;10501288;27;21129;-77
2024/04/18 02:38:52;;;;;;;12.93;10.10;;;;;4.20;101061.00;;;;10525208;27;21176;-76
2024/04/18 02:43:54;;;;;;;13.80;10.97;;;;;4.10;101066.00;;;;10535323;27;20264;-76
2024/04/18 02:48:56;;;;;;;12.27;10.50;;;;;4.00;101073.00;;;;10567462;27;20265;-76
2024/04/18 02:53:58;;;;;;;13.07;10.40;;;;;3.90;101088.00;;;;10504275;27;20261;-76
2024/04/18 02:58:59;;;;;;;14.63;11.20;;;;;3.90;101078.00;;;;10512868;27;20273;-77
2024/04/18 03:04:01;;;;;;;13.70;11.80;;;;;4.00;101080.00;;;;10519289;27;20277;-76
2024/04/18 03:09:08;;;;;;;14.67;11.97;;;;;4.10;101092.00;;;;10523097;27;20274;-77
2024/04/18 03:14:26;;;;;;;17.27;13.03;;;;;4.10;101088.00;;;;10525953;27;20273;-76
2024/04/18 03:19:39;;;;;;;14.30;11.23;;;;;4.10;101089.00;;;;10599914;27;20300;-77
2024/04/18 03:24:56;;;;;;;20.60;13.93;;;;;4.20;101110.00;;;;10542758;27;20262;-77
2024/04/18 03:30:01;;;;;;;16.20;12.40;;;;;4.20;101100.00;;;;10567302;27;20340;-77
2024/04/18 03:35:09;;;;;;;18.73;13.57;;;;;4.30;101116.00;;;;10516329;27;20321;-76
2024/04/18 03:40:13;;;;;;;19.50;12.93;;;;;4.30;101119.00;;;;10511972;27;20295;-76
2024/04/18 03:45:34;;;;;;;20.47;13.27;;;;;4.40;101123.00;;;;10527847;27;20265;-78
2024/04/18 03:50:54;;;;;;;14.83;12.47;;;;;4.40;101135.00;;;;10521740;27;21116;-78
2024/04/18 03:55:56;;;;;;;16.83;13.80;;;;;4.40;101148.00;;;;10504216;27;20296;-77
2024/04/18 04:00:58;;;;;;;17.97;13.50;;;;;4.50;101158.00;;;;10522473;27;20325;-77
2024/04/18 04:05:59;;;;;;;17.40;13.03;;;;;4.50;101157.00;;;;10494543;28;20312;-77
2024/04/18 04:11:01;;;;;;;19.83;13.93;;;;;4.50;101161.00;;;;10519687;27;20312;-77
2024/04/18 04:16:03;;;;;;;19.80;13.50;;;;;4.50;101172.00;;;;10506308;27;20260;-77
2024/04/18 04:21:13;;;;;;;18.93;13.93;;;;;4.60;101172.00;;;;10545570;27;20369;-77
2024/04/18 04:26:15;;;;;;;19.90;15.80;;;;;4.60;101174.00;;;;10507607;27;20296;-78
2024/04/18 04:31:17;;;;;;;24.50;16.83;;;;;4.60;101188.00;;;;10503147;27;20383;-77
2024/04/18 04:36:18;;;;;;;22.67;14.47;;;;;4.60;101199.00;;;;10541070;27;20262;-77
2024/04/18 04:41:22;;;;;;;24.30;15.13;;;;;4.70;101205.00;;;;10537300;27;21283;-77
2024/04/18 04:46:24;;;;;;;20.97;14.17;;;;;4.70;101211.00;;;;10493193;27;20292;-77
2024/04/18 04:51:45;;;;;;;20.90;14.37;;;;;4.80;101220.00;;;;10543068;27;20268;-78
2024/04/18 04:57:07;;;;;;;21.00;14.30;;;;;4.90;101238.00;;;;10541168;27;21109;-78
2024/04/18 05:02:09;;;;;;;19.90;14.57;;;;;5.00;101243.00;;;;10520888;27;20262;-78
2024/04/18 05:07:24;;;;;;;18.53;13.67;;;;;4.90;101251.00;;;;10527506;27;20376;-78
2024/04/18 05:12:26;;;;;;;19.60;11.93;;;;;4.90;101275.00;;;;10540754;27;20350;-78
2024/04/18 05:17:28;;;;;;;20.50;13.30;;;;;5.10;101275.00;;;;10516349;27;20291;-77
2024/04/18 05:22:58;;;;;;;22.63;13.17;;;;;5.30;101281.00;;;;10552113;27;20283;-78
2024/04/18 05:28:19;;;;;;;19.33;12.30;;;;;5.80;101268.00;;;;10524349;27;20266;-77
2024/04/18 05:33:21;;;;;;;14.63;11.57;;;;;6.30;101290.00;;;;10509494;27;20284;-78
2024/04/18 05:38:22;;;;;;;15.13;9.90;;;;;6.60;101301.00;;;;10560313;27;20268;-77
2024/04/18 05:43:24;;;;;;;13.47;9.70;;;;;6.60;101312.00;;;;10511716;27;20386;-79
2024/04/18 05:48:26;;;;;;;15.00;9.27;;;;;6.80;101322.00;;;;10509632;27;20262;-79
2024/04/18 05:53:27;;;;;;;17.53;9.73;;;;;6.90;101316.00;;;;10483768;27;20270;-79
2024/04/18 05:58:29;;;;;;;13.83;9.33;;;;;7.00;101336.00;;;;10535988;27;20355;-80
2024/04/18 06:03:32;;;;;;;14.33;8.90;;;;;7.20;101341.00;;;;10505081;27;20283;-80
2024/04/18 06:08:33;;;;;;;12.33;8.80;;;;;7.50;101343.00;;;;10519811;27;20300;-80
2024/04/18 06:13:38;;;;;;;13.40;8.70;;;;;7.80;101359.00;;;;10528094;27;20302;-79
2024/04/18 06:18:40;;;;;;;8.40;6.90;;;;;8.20;101361.00;;;;10483439;27;20277;-79
2024/04/18 06:23:41;;;;;;;9.37;6.93;;;;;8.50;101367.00;;;;10505522;27;20287;-79
2024/04/18 06:28:52;;;;;;;9.00;5.93;;;;;8.90;101373.00;;;;10521949;27;20730;-79
2024/04/18 06:33:53;;;;;;;6.47;5.67;;;;;8.90;101377.00;;;;10558749;27;20291;-79
2024/04/18 06:38:55;;;;;;;10.10;5.60;;;;;9.30;101384.00;;;;10522112;27;20261;-79
2024/04/18 06:43:57;;;;;;;7.17;4.90;;;;;9.50;101391.00;;;;10522507;27;20796;-79
2024/04/18 06:49:01;;;;;;;7.27;5.17;;;;;9.60;101396.00;;;;10556279;27;20268;-79
2024/04/18 06:54:02;;;;;;;7.93;4.40;;;;;10.10;101403.00;;;;10519613;27;20364;-80
2024/04/18 06:59:04;;;;;;;6.37;4.27;;;;;10.40;101402.00;;;;10514349;27;21220;-80
2024/04/18 07:04:14;;;;;;;11.50;4.73;;;;;10.80;101408.00;;;;10493368;27;20277;-79
2024/04/18 07:09:36;;;;;;;6.70;3.70;;;;;11.10;101417.00;;;;10532743;27;20265;-79
2024/04/18 07:14:51;;;;;;;6.77;3.63;;;;;11.40;101428.00;;;;10489625;27;20268;-79
2024/04/18 07:20:12;;;;;;;5.17;3.60;;;;;11.60;101429.00;;;;10518193;27;20601;-79
2024/04/18 07:25:37;;;;;;;5.67;3.70;;;;;11.40;101437.00;;;;10560650;27;20269;-79
2024/04/18 07:30:58;;;;;;;5.33;3.43;;;;;11.00;101443.00;;;;10529540;27;20324;-80
2024/04/18 07:36:01;;;;;;;8.23;3.83;;;;;10.80;101460.00;;;;10509259;27;20296;-79
2024/04/18 07:41:03;;;;;;;7.47;4.23;;;;;10.80;101466.00;;;;10541744;27;20295;-79
2024/04/18 07:46:04;;;;;;;5.53;3.50;;;;;11.40;101472.00;;;;10550720;27;20474;-79
2024/04/18 07:51:06;;;;;;;5.00;3.00;;;;;11.80;101477.00;;;;10542095;27;20260;-79
2024/04/18 07:56:08;;;;;;;6.37;3.30;;;;;12.40;101472.00;;;;10529952;27;20262;-79
2024/04/18 08:01:11;;;;;;;4.73;2.10;;;;;12.90;101482.00;;;;10504069;27;20253;-80
2024/04/18 08:06:15;;;;;;;4.77;1.70;;;;;13.20;101487.00;;;;10529042;27;20262;-78
2024/04/18 08:11:21;;;;;;;3.50;1.92;;;;;13.60;101491.00;;;;10480894;27;20299;-79
2024/04/18 08:16:45;;;;;;;7.57;2.10;;;;;13.30;101496.00;;;;10503476;27;20266;-79
2024/04/18 08:21:47;;;;;;;6.95;2.15;;;;;13.90;101505.00;;;;10517969;27;20257;-80
2024/04/18 08:26:48;;;;;;;3.33;1.92;;;;;14.40;101508.00;;;;10526919;27;20304;-80
2024/04/18 08:31:51;;;;;;;6.43;1.98;;;;;15.20;101509.00;;;;10556251;27;20292;-79
2024/04/18 08:36:52;;;;;;;5.45;1.88;;;;;15.60;101509.00;;;;10554977;27;20315;-79
2024/04/18 08:41:56;;;;;;;5.20;1.70;;;;;16.20;101516.00;;;;10547358;27;20894;-79
2024/04/18 08:46:59;;;;;;;3.92;1.75;;;;;15.30;101534.00;;;;10547823;27;20318;-79
2024/04/18 08:52:03;;;;;;;3.65;1.30;;;;;14.10;101532.00;;;;10506978;27;20277;-79
2024/04/18 08:57:08;;;;;;;4.45;1.40;;;;;13.00;101530.00;;;;10517425;27;20308;-79
2024/04/18 09:02:10;;;;;;;3.60;1.63;;;;;13.60;101527.00;;;;10561193;27;20299;-79
2024/04/18 09:07:12;;;;;;;4.32;1.20;;;;;16.00;101531.00;;;;10540611;27;20379;-79
2024/04/18 09:12:13;;;;;;;3.83;1.55;;;;;17.20;101530.00;;;;10474495;27;20366;-81
2024/04/18 09:17:15;;;;;;;7.25;1.50;;;;;16.70;101538.00;;;;10521180;27;20402;-81
2024/04/18 09:22:17;;;;;;;1.40;0.90;;;;;15.80;101561.00;;;;10481301;27;20360;-81
2024/04/18 09:27:18;;;;;;;4.75;1.33;;;;;13.70;101571.00;;;;10507632;27;20361;-80
2024/04/18 09:32:22;;;;;;;6.28;1.27;;;;;13.10;101563.00;;;;10488776;27;20708;-80
2024/04/18 09:37:26;;;;;;;3.53;1.20;;;;;14.70;101571.00;;;;10539502;27;20261;-81
2024/04/18 09:42:55;;;;;;;5.13;1.17;;;;;13.90;101580.00;;;;10493387;27;20267;-81
2024/04/18 09:47:58;;;;;;;3.53;1.20;;;;;13.50;101577.00;;;;10527416;27;21115;-82
2024/04/18 09:53:01;;;;;;;2.08;0.90;;;;;15.90;101566.00;;;;10549580;27;20268;-82
2024/04/18 09:58:03;;;;;;;1.45;0.98;;;;;16.40;101569.00;;;;10521485;27;20285;-83
2024/04/18 10:03:07;;;;;;;2.42;1.05;;;;;16.60;101570.00;;;;10527158;27;20777;-82
2024/04/18 10:08:10;;;;;;;2.70;0.98;;;;;18.60;101563.00;;;;10531581;27;21045;-81
2024/04/18 10:13:11;;;;;;;2.70;0.90;;;;;18.40;101567.00;;;;10513828;27;20617;-82
2024/04/18 10:18:17;;;;;;;2.70;1.13;;;;;16.10;101575.00;;;;10530676;27;20313;-82
2024/04/18 10:23:21;;;;;;;2.72;1.08;;;;;14.70;101581.00;;;;10523001;27;20261;-80
2024/04/18 10:28:25;;;;;;;3.65;1.15;;;;;14.30;101580.00;;;;10514429;27;20291;-79
2024/04/18 10:33:30;;;;;;;3.67;1.23;;;;;15.60;101570.00;;;;10525358;27;20269;-80
2024/04/18 10:38:33;;;;;;;3.28;1.38;;;;;17.50;101560.00;;;;10564974;27;20313;-81
2024/04/18 10:43:36;;;;;;;4.68;1.50;;;;;17.70;101567.00;;;;10506398;27;20274;-80
2024/04/18 10:48:38;;;;;;;7.28;1.30;;;;;17.40;101585.00;;;;10510643;27;20299;-80
2024/04/18 10:53:40;;;;;;;4.13;1.20;;;;;15.90;101581.00;;;;10556741;27;20270;-80
2024/04/18 10:58:42;;;;;;;4.15;1.90;;;;;14.30;101587.00;;;;10519507;27;20342;-80
2024/04/18 11:03:43;;;;;;;5.07;1.95;;;;;13.60;101586.00;;;;10493015;27;20369;-79
2024/04/18 11:08:45;;;;;;;5.63;2.17;;;;;13.30;101592.00;;;;10538107;27;20269;-80
2024/04/18 11:13:49;;;;;;;4.57;1.90;;;;;13.90;101588.00;;;;10499522;27;20573;-80
2024/04/18 11:18:52;;;;;;;3.50;1.88;;;;;15.30;101581.00;;;;10508667;27;20273;-80
2024/04/18 11:23:55;;;;;;;4.93;2.20;;;;;16.00;101588.00;;;;10553814;27;20262;-81
2024/04/18 11:28:57;;;;;;;6.80;2.97;;;;;15.00;101589.00;;;;10534279;27;20722;-80
2024/04/18 11:33:58;;;;;;;3.65;2.67;;;;;13.70;101600.00;;;;10530323;27;20361;-82
2024/04/18 11:39:00;;;;;;;5.40;2.92;;;;;16.00;101575.00;;;;10502283;27;20266;-81
2024/04/18 11:44:02;;;;;;;6.10;3.10;;;;;18.60;101581.00;;;;10482157;27;20258;-80
2024/04/18 11:49:04;;;;;;;6.43;2.30;;;;;18.60;101584.00;;;;10552441;27;20261;-81
2024/04/18 11:54:05;;;;;;;4.07;2.60;;;;;17.70;101580.00;;;;10556390;27;20308;-81
2024/04/18 11:59:10;;;;;;;4.28;2.10;;;;;17.30;101568.00;;;;10516331;27;20273;-82
2024/04/18 12:04:11;;;;;;;2.38;2.17;;;;;16.40;101588.00;;;;10573583;27;20260;-83
2024/04/18 12:09:13;;;;;;;6.93;2.70;;;;;14.90;101591.00;;;;10494203;27;20273;-82
2024/04/18 12:14:14;;;;;;;1.98;1.17;;;;;14.30;101586.00;;;;10533866;27;21096;-81
2024/04/18 12:19:27;;;;;;;1.70;1.08;;;;;14.20;101587.00;;;;10517702;27;20276;-79
2024/04/18 12:24:29;;;;;;;4.85;1.08;;;;;17.60;101565.00;;;;10493598;27;20329;-81
2024/04/18 12:29:46;;;;;;;3.47;1.08;;;;;16.80;101577.00;;;;10523919;27;20715;-82
2024/04/18 12:34:51;;;;;;;5.07;1.25;;;;;15.70;101582.00;;;;10534422;27;20295;-82
2024/04/18 12:39:53;;;;;;;2.33;1.15;;;;;14.70;101580.00;;;;10564393;27;20288;-82
2024/04/18 12:45:01;;;;;;;3.67;1.13;;;;;15.80;101579.00;;;;10511149;27;20277;-82
2024/04/18 12:50:04;;;;;;;2.50;1.15;;;;;16.70;101599.00;;;;10510822;27;20316;-82
2024/04/18 12:55:05;;;;;;;2.72;0.90;;;;;15.90;101591.00;;;;10521268;27;20273;-81
2024/04/18 13:00:07;;;;;;;2.58;0.75;;;;;14.70;101595.00;;;;10556493;27;20329;-82
2024/04/18 13:05:27;;;;;;;1.77;0.80;;;;;13.80;101591.00;;;;10544704;27;20273;-82
2024/04/18 13:10:37;;;;;;;1.63;1.02;;;;;13.50;101589.00;;;;10523453;27;20269;-82
2024/04/18 13:15:56;;;;;;;2.67;1.15;;;;;13.30;101593.00;;;;10542183;27;20350;-81
2024/04/18 13:21:03;;;;;;;2.17;1.00;;;;;13.50;101589.00;;;;10514324;27;20958;-83
2024/04/18 13:26:04;;;;;;;3.15;0.80;;;;;13.80;101590.00;;;;10561615;27;20367;-82
2024/04/18 13:31:11;;;;;;;2.17;0.90;;;;;14.60;101570.00;;;;10479684;27;20253;-83
2024/04/18 13:36:24;;;;;;;1.88;1.02;;;;;15.90;101574.00;;;;10561892;27;20268;-81
2024/04/18 13:41:40;;;;;;;2.13;0.60;;;;;16.40;101570.00;;;;10470252;27;20291;-82
2024/04/18 13:46:52;;;;;;;2.45;0.75;;;;;15.40;101564.00;;;;10508041;27;20265;-83
2024/04/18 13:52:13;;;;;;;2.60;0.80;;;;;16.00;101564.00;;;;10529665;27;20296;-81
2024/04/18 13:57:34;;;;;;;2.95;0.98;;;;;16.90;101551.00;;;;10518076;27;20817;-81
2024/04/18 14:02:54;;;;;;;2.88;0.98;;;;;18.20;101559.00;;;;10497788;27;20268;-82
2024/04/18 14:07:56;;;;;;;4.03;1.00;;;;;16.80;101555.00;;;;10530642;27;20273;-81
2024/04/18 14:13:04;;;;;;;1.48;0.80;;;;;14.70;101543.00;;;;10517046;28;20649;-81
2024/04/18 14:24:02;;;;;;;3.53;1.13;;;;;14.70;101553.00;;;;10539552;27;20291;-81
2024/04/18 14:29:04;;;;;;;1.40;0.82;;;;;15.40;101551.00;;;;10502870;27;20358;-81
2024/04/18 14:34:05;;;;;;;3.33;0.88;;;;;15.90;101552.00;;;;10485210;27;20329;-80
2024/04/18 14:39:07;;;;;;;1.92;1.02;;;;;15.80;101548.00;;;;10511843;27;21142;-81
2024/04/18 14:44:08;;;;;;;3.35;1.05;;;;;14.40;101559.00;;;;10512769;27;20265;-81
2024/04/18 14:49:10;;;;;;;2.83;1.30;;;;;13.80;101552.00;;;;10528151;27;21251;-81
2024/04/18 14:54:12;;;;;;;2.20;0.90;;;;;14.10;101549.00;;;;10556156;27;20261;-80
2024/04/18 14:59:13;;;;;;;3.40;1.27;;;;;14.60;101537.00;;;;10567440;27;20303;-81
2024/04/18 15:04:15;;;;;;;2.27;1.10;;;;;15.30;101526.00;;;;10509860;27;21104;-81
2024/04/18 15:09:36;;;;;;;2.13;1.08;;;;;15.20;101532.00;;;;10549647;27;20281;-82
2024/04/18 15:14:37;;;;;;;5.22;1.10;;;;;14.70;101542.00;;;;10521239;27;21064;-82
2024/04/18 15:19:39;;;;;;;5.15;1.45;;;;;14.90;101533.00;;;;10532872;27;20272;-81
2024/04/18 15:25:10;;;;;;;7.65;3.80;;;;;14.40;101538.00;;;;10512417;27;20299;-81
2024/04/18 15:30:12;;;;;;;3.07;1.27;;;;;13.90;101524.00;;;;10522354;27;20268;-80
2024/04/18 15:35:16;;;;;;;2.65;1.50;;;;;13.60;101529.00;;;;10552040;27;20269;-82
2024/04/18 15:40:36;;;;;;;2.00;1.10;;;;;13.90;101531.00;;;;10545054;27;20312;-82
2024/04/18 15:45:40;;;;;;;4.97;1.23;;;;;13.90;101525.00;;;;10508239;27;20350;-82
2024/04/18 15:50:57;;;;;;;3.10;0.90;;;;;13.80;101525.00;;;;10535146;27;20261;-82
2024/04/18 15:56:06;;;;;;;5.47;1.50;;;;;13.40;101530.00;;;;10521690;27;20304;-81
2024/04/18 16:01:26;;;;;;;2.07;0.97;;;;;13.50;101525.00;;;;10526239;27;20324;-82
2024/04/18 16:06:46;;;;;;;3.73;1.00;;;;;13.30;101535.00;;;;10530708;27;20283;-82
2024/04/18 16:11:47;;;;;;;5.93;1.43;;;;;13.30;101540.00;;;;10496084;27;20304;-78
2024/04/18 16:17:05;;;;;;;4.17;1.13;;;;;13.20;101539.00;;;;10489289;27;20274;-79
2024/04/18 16:22:13;;;;;;;2.63;1.17;;;;;13.00;101548.00;;;;10491984;27;20281;-78
2024/04/18 16:27:21;;;;;;;1.00;0.80;;;;;13.00;101533.00;;;;10502597;27;20780;-79
2024/04/18 16:32:33;;;;;;;4.93;1.13;;;;;13.00;101531.00;;;;10557221;27;20364;-79
2024/04/18 16:37:39;;;;;;;5.33;1.40;;;;;12.90;101540.00;;;;10494774;27;20284;-76
2024/04/18 16:42:52;;;;;;;5.10;1.30;;;;;12.80;101540.00;;;;10483792;27;20374;-76
2024/04/18 16:47:53;;;;;;;1.87;1.10;;;;;12.70;101534.00;;;;10483901;27;20589;-76
2024/04/18 16:52:55;;;;;;;4.50;1.00;;;;;12.60;101537.00;;;;10503754;27;20721;-79
2024/04/18 16:58:16;;;;;;;7.17;1.73;;;;;12.40;101533.00;;;;10563576;27;20655;-76
2024/04/18 17:03:30;;;;;;;7.97;1.10;;;;;12.30;101529.00;;;;10552521;27;20380;-77
2024/04/18 17:08:32;;;;;;;4.90;1.47;;;;;12.10;101530.00;;;;10544030;27;20253;-78
2024/04/18 17:13:34;;;;;;;2.87;1.20;;;;;12.00;101527.00;;;;10494392;27;20363;-78
2024/04/18 17:18:45;;;;;;;3.30;1.33;;;;;11.70;101525.00;;;;10529447;27;20352;-77
2024/04/18 17:23:47;;;;;;;7.73;1.43;;;;;11.60;101523.00;;;;10528175;27;21287;-83
2024/04/18 17:28:48;;;;;;;2.90;1.40;;;;;11.40;101527.00;;;;10463064;27;20270;-83
2024/04/18 17:34:09;;;;;;;4.03;1.53;;;;;11.30;101526.00;;;;10545216;27;20300;-87
2024/04/18 17:39:18;;;;;;;3.70;1.30;;;;;11.20;101529.00;;;;10512658;27;20256;-84
2024/04/18 17:44:19;;;;;;;6.77;1.70;;;;;11.10;101522.00;;;;10524818;27;21139;-85
2024/04/18 17:49:27;;;;;;;13.80;3.00;;;;;10.90;101516.00;;;;10518271;27;20270;-80
2024/04/18 17:54:29;;;;;;;6.93;2.13;;;;;10.80;101513.00;;;;10550306;27;20273;-83
2024/04/18 17:59:30;;;;;;;5.43;1.70;;;;;10.60;101506.00;;;;10519894;27;20265;-84
2024/04/18 18:04:32;;;;;;;2.83;1.20;;;;;10.50;101514.00;;;;10532550;27;20265;-88
2024/04/18 18:09:35;;;;;;;2.90;1.50;;;;;10.40;101507.00;;;;10560606;27;20265;-87
2024/04/18 18:14:37;;;;;;;3.47;1.57;;;;;10.20;101497.00;;;;10531510;27;20928;-86
2024/04/18 18:19:39;;;;;;;7.13;2.17;;;;;10.10;101489.00;;;;10520365;27;20308;-86
2024/04/18 18:24:41;;;;;;;8.37;1.70;;;;;9.90;101497.00;;;;10512296;27;20307;-85
2024/04/18 18:29:42;;;;;;;2.70;1.53;;;;;9.80;101499.00;;;;10463314;27;20258;-84
2024/04/18 18:34:48;;;;;;;4.30;1.90;;;;;9.70;101498.00;;;;10558200;27;20315;-80
2024/04/18 18:39:49;;;;;;;5.17;1.70;;;;;9.60;101494.00;;;;10491524;27;20263;-79
2024/04/18 18:44:50;;;;;;;2.87;1.70;;;;;9.50;101494.00;;;;10496933;27;20308;-79
2024/04/18 18:49:52;;;;;;;3.83;1.70;;;;;9.40;101494.00;;;;10512624;27;20386;-81
2024/04/18 18:54:54;;;;;;;3.93;1.90;;;;;9.30;101496.00;;;;10541942;27;20360;-79
2024/04/18 18:59:55;;;;;;;4.23;1.70;;;;;9.20;101483.00;;;;10513548;27;20325;-80
2024/04/18 19:04:57;;;;;;;7.37;2.00;;;;;9.10;101483.00;;;;10527944;27;20268;-80
2024/04/18 19:09:59;;;;;;;4.33;2.43;;;;;9.10;101492.00;;;;10494697;27;20309;-80
2024/04/18 19:15:01;;;;;;;3.97;2.10;;;;;9.00;101494.00;;;;10497587;27;20265;-81
2024/04/18 19:20:03;;;;;;;5.17;2.43;;;;;8.90;101483.00;;;;10489372;27;20265;-80
2024/04/18 19:25:05;;;;;;;4.33;2.00;;;;;8.90;101494.00;;;;10547905;27;20260;-81
2024/04/18 19:30:10;;;;;;;4.93;1.80;;;;;8.80;101482.00;;;;10523987;27;20308;-80
2024/04/18 19:35:11;;;;;;;5.70;2.37;;;;;8.80;101480.00;;;;10496052;27;20262;-80
2024/04/18 19:40:15;;;;;;;7.10;1.87;;;;;8.70;101473.00;;;;10509500;27;20263;-80
2024/04/18 19:45:36;;;;;;;5.20;2.10;;;;;8.80;101472.00;;;;10532877;27;20257;-84
2024/04/18 19:50:39;;;;;;;4.60;2.13;;;;;8.80;101470.00;;;;10494768;27;20265;-86
2024/04/18 19:55:58;;;;;;;4.80;2.23;;;;;8.80;101469.00;;;;10463554;27;20268;-86
2024/04/18 20:01:02;;;;;;;6.03;2.13;;;;;8.80;101476.00;;;;10506115;27;20270;-84
2024/04/18 20:06:08;;;;;;;6.70;1.80;;;;;8.80;101464.00;;;;10516988;27;20265;-85
2024/04/18 20:11:25;;;;;;;5.30;2.00;;;;;8.80;101475.00;;;;10480937;27;20598;-87
2024/04/18 20:16:27;;;;;;;4.77;1.63;;;;;8.80;101466.00;;;;10489744;27;20760;-87
2024/04/18 20:21:47;;;;;;;4.47;1.80;;;;;8.80;101467.00;;;;10516399;27;20273;-88
2024/04/18 20:26:48;;;;;;;4.40;1.80;;;;;8.80;101456.00;;;;10550817;27;20260;-84
2024/04/18 20:31:50;;;;;;;3.23;1.40;;;;;8.80;101447.00;;;;10518861;27;20332;-82
2024/04/18 20:36:51;;;;;;;6.87;2.20;;;;;8.80;101440.00;;;;10475143;27;20269;-87
2024/04/18 20:41:53;;;;;;;2.87;1.53;;;;;8.80;101430.00;;;;10518339;27;20307;-87
2024/04/18 20:46:54;;;;;;;3.97;2.23;;;;;8.80;101414.00;;;;10556822;27;20262;-87
2024/04/18 20:51:56;;;;;;;6.07;2.03;;;;;8.70;101401.00;;;;10487886;27;20268;-86
2024/04/18 20:57:17;;;;;;;7.37;2.17;;;;;8.70;101392.00;;;;10505169;27;20311;-88
2024/04/18 21:02:20;;;;;;;4.07;2.07;;;;;8.60;101390.00;;;;10493882;27;20380;-82
2024/04/18 21:07:22;;;;;;;6.30;2.50;;;;;8.60;101381.00;;;;10564316;27;20277;-86
2024/04/18 21:12:24;;;;;;;4.27;2.20;;;;;8.70;101371.00;;;;10487816;27;20253;-86
2024/04/18 21:17:26;;;;;;;3.93;2.03;;;;;8.70;101370.00;;;;10471137;27;20322;-87
2024/04/18 21:22:28;;;;;;;4.27;2.60;;;;;8.70;101352.00;;;;10495544;27;20261;-85
2024/04/18 21:27:29;;;;;;;5.87;2.80;;;;;8.70;101341.00;;;;10553341;27;20266;-85
2024/04/18 21:32:31;;;;;;;5.20;2.30;;;;;8.70;101336.00;;;;10494944;27;20265;-86
2024/04/18 21:37:32;;;;;;;5.07;2.43;;;;;8.70;101329.00;;;;10531961;27;20284;-83
2024/04/18 21:42:34;;;;;;;5.93;2.30;;;;;8.70;101322.00;;;;10484495;27;20906;-86
2024/04/18 21:47:36;;;;;;;4.30;2.23;;;;;8.70;101318.00;;;;10495832;27;20725;-86
2024/04/18 21:52:38;;;;;;;4.00;2.10;;;;;8.80;101320.00;;;;10525532;27;20361;-84
2024/04/18 21:57:39;;;;;;;7.47;2.73;;;;;8.80;101315.00;;;;10523783;27;20280;-87
2024/04/18 22:02:41;;;;;;;4.17;2.40;;;;;8.80;101314.00;;;;10494275;27;20838;-85
2024/04/18 22:07:42;;;;;;;4.90;2.40;;;;;8.90;101286.00;;;;10558641;27;20334;-83
2024/04/18 22:12:44;;;;;;;4.73;2.80;;;;;8.90;101286.00;;;;10500145;27;20311;-84
2024/04/18 22:17:45;;;;;;;5.07;2.60;;;;;9.00;101292.00;;;;10496246;27;20283;-84
2024/04/18 22:22:47;;;;;;;4.97;3.13;;;;;9.00;101308.00;;;;10494399;27;21263;-85
2024/04/18 22:27:48;;;;;;;6.53;3.17;;;;;9.00;101310.00;;;;10543899;27;20266;-85
2024/04/18 22:32:49;;;;;;;9.10;2.90;;;;;9.00;101299.00;;;;10538148;27;20333;-84
2024/04/18 22:37:51;;;;;;;5.80;3.10;;;;;9.00;101281.00;;;;10505687;27;20313;-85
2024/04/18 22:42:53;;;;;;;4.00;2.70;;;;;9.00;101282.00;;;;10500746;27;20265;-84
2024/04/18 22:47:54;;;;;;;4.97;2.50;;;;;9.00;101284.00;;;;10511935;27;20336;-84
2024/04/18 22:52:56;;;;;;;6.03;2.30;;;;;9.00;101275.00;;;;10496897;27;20288;-85
2024/04/18 22:57:57;;;;;;;4.47;2.70;;;;;9.00;101263.00;;;;10528778;27;20299;-84
2024/04/18 23:03:02;;;;;;;4.50;2.60;;;;;9.00;101257.00;;;;10518164;27;20398;-84
2024/04/18 23:08:09;;;;;;;4.67;2.50;;;;;9.00;101256.00;;;;10528203;27;20283;-84
2024/04/18 23:13:11;;;;;;;4.57;2.80;;;;;8.90;101249.00;;;;10544272;27;20700;-83
2024/04/18 23:18:18;;;;;;;6.97;3.13;;;;;8.90;101241.00;;;;10506772;27;20300;-82
2024/04/18 23:23:20;;;;;;;5.90;3.47;;;;;8.80;101239.00;;;;10520457;27;20283;-82
2024/04/18 23:28:22;;;;;;;10.30;2.80;;;;;8.50;101219.00;;;;10502477;27;20969;-82
2024/04/18 23:33:23;;;;;;;6.90;3.03;;;;;8.30;101205.00;;;;10526886;27;20261;-83
2024/04/18 23:38:25;;;;;;;5.23;3.23;;;;;8.20;101198.00;;;;10553397;27;20733;-82
2024/04/18 23:43:26;;;;;;;6.87;2.63;;;;;8.10;101180.00;;;;10502425;27;20266;-83
2024/04/18 23:48:27;;;;;;;5.00;3.23;;;;;8.00;101182.00;;;;10556887;27;20318;-83
2024/04/18 23:53:29;;;;;;;7.03;3.30;;;;;7.90;101152.00;;;;10498330;27;20309;-83
2024/04/18 23:58:30;;;;;;;4.10;2.90;;;;;7.90;101144.00;;;;10550655;27;20262;-82
